Hlavní strana
METAR-TAF:

METAR-TAF

Letiště :

Oberpfaffenhofen, Německo

zeměpisná šířka: 48-05N, zeměpisná délka: 011-17E, výška: 600 m

Aktuální stav počasí

Zpráva byla vytvořena před 16 minutami, v 14:50 UTC
Západní vítr 12 kt, proměnlivý mezi západojihozápadním a severozápadním
Teplota 24°C
Vlhkost vzduchu 34%
Tlak 1020 hPa
Viditelnost 10 km a více

METAR: EDMO 141450Z AUTO 28012KT 250V310 9999 // NCD 24/07 Q1020

Čas: 17:06 (15:06 UTC)


TAF: chybějící

Stav a předpovědi počasí z více než 4 000 letišť (zprávy METAR a TAF).

Červené a žluté tečky na mapě představují dostupné meteorologické stanice.

Když kurzor umístíte na tečku, zobrazí se název stanice.

Pak kliknutím zobrazíte stav a předpověď počasí.

Chcete-li změnit mapu, kliknutím na zelené tlačítko se znaménkem +mapu přiblížíte, kliknutím na zelené tlačítko se znaménkem – mapu oddálíte a kliknutím na zelené šipky přejdete na sousední mapy.


METAR-TAF: